sensor_id;sensor_type;location;lat;lon;timestamp;P1;durP1;ratioP1;P2;durP2;ratioP2
20320;SDS011;10318;47.674;9.052;2022-11-12T00:01:10;37.83;;;21.92;;
20320;SDS011;10318;47.674;9.052;2022-11-12T00:03:55;39.95;;;21.35;;
20320;SDS011;10318;47.674;9.052;2022-11-12T00:06:41;41.60;;;22.70;;
20320;SDS011;10318;47.674;9.052;2022-11-12T00:09:27;38.00;;;21.98;;
20320;SDS011;10318;47.674;9.052;2022-11-12T00:12:12;37.15;;;22.48;;
20320;SDS011;10318;47.674;9.052;2022-11-12T00:14:57;32.85;;;19.95;;
20320;SDS011;10318;47.674;9.052;2022-11-12T00:17:42;34.88;;;21.15;;
20320;SDS011;10318;47.674;9.052;2022-11-12T00:20:28;35.72;;;21.15;;
20320;SDS011;10318;47.674;9.052;2022-11-12T00:23:13;33.25;;;20.60;;
20320;SDS011;10318;47.674;9.052;2022-11-12T00:25:59;35.80;;;20.48;;
20320;SDS011;10318;47.674;9.052;2022-11-12T00:28:44;36.13;;;21.85;;
20320;SDS011;10318;47.674;9.052;2022-11-12T00:31:30;39.38;;;21.38;;
20320;SDS011;10318;47.674;9.052;2022-11-12T00:34:15;38.13;;;22.15;;
20320;SDS011;10318;47.674;9.052;2022-11-12T00:37:00;34.05;;;21.60;;
20320;SDS011;10318;47.674;9.052;2022-11-12T00:39:46;35.00;;;21.00;;
20320;SDS011;10318;47.674;9.052;2022-11-12T00:42:31;36.90;;;21.13;;
20320;SDS011;10318;47.674;9.052;2022-11-12T00:45:17;40.15;;;22.70;;
20320;SDS011;10318;47.674;9.052;2022-11-12T00:48:02;37.75;;;21.63;;
20320;SDS011;10318;47.674;9.052;2022-11-12T00:50:47;35.70;;;21.35;;
20320;SDS011;10318;47.674;9.052;2022-11-12T00:53:33;38.97;;;21.88;;
20320;SDS011;10318;47.674;9.052;2022-11-12T00:56:18;39.28;;;22.55;;
20320;SDS011;10318;47.674;9.052;2022-11-12T00:59:03;40.55;;;22.55;;
20320;SDS011;10318;47.674;9.052;2022-11-12T01:01:49;39.08;;;21.83;;
20320;SDS011;10318;47.674;9.052;2022-11-12T01:04:34;37.78;;;21.38;;
20320;SDS011;10318;47.674;9.052;2022-11-12T01:07:20;42.47;;;23.10;;
20320;SDS011;10318;47.674;9.052;2022-11-12T01:10:05;40.55;;;22.02;;
20320;SDS011;10318;47.674;9.052;2022-11-12T01:12:50;39.38;;;21.80;;
20320;SDS011;10318;47.674;9.052;2022-11-12T01:15:39;34.22;;;20.80;;
20320;SDS011;10318;47.674;9.052;2022-11-12T01:18:24;36.80;;;20.58;;
20320;SDS011;10318;47.674;9.052;2022-11-12T01:21:11;34.97;;;20.63;;
20320;SDS011;10318;47.674;9.052;2022-11-12T01:23:56;37.33;;;22.42;;
20320;SDS011;10318;47.674;9.052;2022-11-12T01:26:42;40.22;;;22.65;;
20320;SDS011;10318;47.674;9.052;2022-11-12T01:29:28;36.58;;;21.17;;
20320;SDS011;10318;47.674;9.052;2022-11-12T01:32:13;37.00;;;21.10;;
20320;SDS011;10318;47.674;9.052;2022-11-12T01:34:58;36.78;;;20.63;;
20320;SDS011;10318;47.674;9.052;2022-11-12T01:37:44;37.17;;;19.42;;
20320;SDS011;10318;47.674;9.052;2022-11-12T01:40:30;37.15;;;20.88;;
20320;SDS011;10318;47.674;9.052;2022-11-12T01:43:16;37.10;;;20.77;;
20320;SDS011;10318;47.674;9.052;2022-11-12T01:46:02;36.78;;;20.48;;
20320;SDS011;10318;47.674;9.052;2022-11-12T01:48:54;38.67;;;21.58;;
20320;SDS011;10318;47.674;9.052;2022-11-12T01:51:41;35.80;;;19.50;;
20320;SDS011;10318;47.674;9.052;2022-11-12T01:54:28;37.15;;;20.42;;
20320;SDS011;10318;47.674;9.052;2022-11-12T01:57:13;36.63;;;20.88;;
20320;SDS011;10318;47.674;9.052;2022-11-12T02:00:00;39.78;;;21.23;;
20320;SDS011;10318;47.674;9.052;2022-11-12T02:02:47;38.58;;;19.98;;
20320;SDS011;10318;47.674;9.052;2022-11-12T02:05:36;37.15;;;20.40;;
20320;SDS011;10318;47.674;9.052;2022-11-12T02:08:21;37.67;;;20.30;;
20320;SDS011;10318;47.674;9.052;2022-11-12T02:11:19;39.55;;;21.67;;
20320;SDS011;10318;47.674;9.052;2022-11-12T02:14:05;39.20;;;20.55;;
20320;SDS011;10318;47.674;9.052;2022-11-12T02:16:50;39.38;;;20.95;;
20320;SDS011;10318;47.674;9.052;2022-11-12T02:19:37;41.60;;;21.25;;
20320;SDS011;10318;47.674;9.052;2022-11-12T02:22:22;37.00;;;21.17;;
20320;SDS011;10318;47.674;9.052;2022-11-12T02:25:08;39.38;;;20.75;;
20320;SDS011;10318;47.674;9.052;2022-11-12T02:27:55;41.95;;;21.67;;
20320;SDS011;10318;47.674;9.052;2022-11-12T02:30:42;35.85;;;20.17;;
20320;SDS011;10318;47.674;9.052;2022-11-12T02:33:27;40.22;;;21.63;;
20320;SDS011;10318;47.674;9.052;2022-11-12T02:36:13;36.50;;;21.33;;
20320;SDS011;10318;47.674;9.052;2022-11-12T02:38:58;32.83;;;19.80;;
20320;SDS011;10318;47.674;9.052;2022-11-12T02:41:43;33.83;;;19.13;;
20320;SDS011;10318;47.674;9.052;2022-11-12T02:44:29;32.42;;;19.52;;
20320;SDS011;10318;47.674;9.052;2022-11-12T02:47:14;34.40;;;19.13;;
20320;SDS011;10318;47.674;9.052;2022-11-12T02:50:00;33.03;;;18.30;;
20320;SDS011;10318;47.674;9.052;2022-11-12T02:52:45;34.03;;;18.08;;
20320;SDS011;10318;47.674;9.052;2022-11-12T02:55:30;30.77;;;18.30;;
20320;SDS011;10318;47.674;9.052;2022-11-12T02:58:15;30.20;;;17.70;;
20320;SDS011;10318;47.674;9.052;2022-11-12T03:01:01;31.15;;;17.75;;
20320;SDS011;10318;47.674;9.052;2022-11-12T03:03:46;29.08;;;16.98;;
20320;SDS011;10318;47.674;9.052;2022-11-12T03:06:32;30.02;;;17.10;;
20320;SDS011;10318;47.674;9.052;2022-11-12T03:09:17;29.50;;;17.33;;
20320;SDS011;10318;47.674;9.052;2022-11-12T03:12:02;30.70;;;17.13;;
20320;SDS011;10318;47.674;9.052;2022-11-12T03:14:47;30.45;;;17.55;;
20320;SDS011;10318;47.674;9.052;2022-11-12T03:17:33;27.25;;;16.77;;
20320;SDS011;10318;47.674;9.052;2022-11-12T03:20:18;30.80;;;18.05;;
20320;SDS011;10318;47.674;9.052;2022-11-12T03:23:05;28.80;;;17.52;;
20320;SDS011;10318;47.674;9.052;2022-11-12T03:25:50;30.73;;;17.92;;
20320;SDS011;10318;47.674;9.052;2022-11-12T03:28:36;28.08;;;15.27;;
20320;SDS011;10318;47.674;9.052;2022-11-12T03:31:21;24.85;;;14.57;;
20320;SDS011;10318;47.674;9.052;2022-11-12T03:34:06;26.10;;;15.05;;
20320;SDS011;10318;47.674;9.052;2022-11-12T03:36:52;25.42;;;15.15;;
20320;SDS011;10318;47.674;9.052;2022-11-12T03:39:37;21.80;;;13.43;;
20320;SDS011;10318;47.674;9.052;2022-11-12T03:42:22;23.23;;;13.88;;
20320;SDS011;10318;47.674;9.052;2022-11-12T03:45:08;23.20;;;14.32;;
20320;SDS011;10318;47.674;9.052;2022-11-12T03:47:54;20.77;;;13.52;;
20320;SDS011;10318;47.674;9.052;2022-11-12T03:50:40;19.38;;;13.77;;
20320;SDS011;10318;47.674;9.052;2022-11-12T03:53:25;24.95;;;13.93;;
20320;SDS011;10318;47.674;9.052;2022-11-12T03:56:10;20.65;;;14.40;;
20320;SDS011;10318;47.674;9.052;2022-11-12T03:58:55;19.27;;;13.10;;
20320;SDS011;10318;47.674;9.052;2022-11-12T04:01:41;20.67;;;13.55;;
20320;SDS011;10318;47.674;9.052;2022-11-12T04:04:26;21.38;;;14.52;;
20320;SDS011;10318;47.674;9.052;2022-11-12T04:07:31;21.45;;;14.35;;
20320;SDS011;10318;47.674;9.052;2022-11-12T04:10:35;20.70;;;13.82;;
20320;SDS011;10318;47.674;9.052;2022-11-12T04:13:20;21.52;;;14.70;;
20320;SDS011;10318;47.674;9.052;2022-11-12T04:16:13;20.75;;;14.43;;
20320;SDS011;10318;47.674;9.052;2022-11-12T04:19:17;20.20;;;13.63;;
20320;SDS011;10318;47.674;9.052;2022-11-12T04:22:20;23.45;;;14.77;;
20320;SDS011;10318;47.674;9.052;2022-11-12T04:25:06;21.88;;;14.95;;
20320;SDS011;10318;47.674;9.052;2022-11-12T04:28:10;21.55;;;14.63;;
20320;SDS011;10318;47.674;9.052;2022-11-12T04:30:55;23.90;;;14.93;;
20320;SDS011;10318;47.674;9.052;2022-11-12T04:33:40;26.02;;;15.35;;
20320;SDS011;10318;47.674;9.052;2022-11-12T04:36:26;25.17;;;15.68;;
20320;SDS011;10318;47.674;9.052;2022-11-12T04:39:11;26.67;;;16.40;;
20320;SDS011;10318;47.674;9.052;2022-11-12T04:41:56;26.45;;;16.30;;
20320;SDS011;10318;47.674;9.052;2022-11-12T04:45:00;27.13;;;17.48;;
20320;SDS011;10318;47.674;9.052;2022-11-12T04:47:49;23.77;;;15.75;;
20320;SDS011;10318;47.674;9.052;2022-11-12T04:50:34;24.83;;;16.50;;
20320;SDS011;10318;47.674;9.052;2022-11-12T04:53:20;29.85;;;17.63;;
20320;SDS011;10318;47.674;9.052;2022-11-12T04:56:08;28.23;;;17.52;;
20320;SDS011;10318;47.674;9.052;2022-11-12T04:58:53;25.70;;;16.55;;
20320;SDS011;10318;47.674;9.052;2022-11-12T05:01:39;25.33;;;16.75;;
20320;SDS011;10318;47.674;9.052;2022-11-12T05:04:24;24.95;;;16.50;;
20320;SDS011;10318;47.674;9.052;2022-11-12T05:07:12;28.60;;;16.73;;
20320;SDS011;10318;47.674;9.052;2022-11-12T05:09:57;27.25;;;17.10;;
20320;SDS011;10318;47.674;9.052;2022-11-12T05:12:43;29.55;;;17.65;;
20320;SDS011;10318;47.674;9.052;2022-11-12T05:15:28;29.92;;;17.88;;
20320;SDS011;10318;47.674;9.052;2022-11-12T05:18:14;27.70;;;17.38;;
20320;SDS011;10318;47.674;9.052;2022-11-12T05:20:59;26.52;;;16.92;;
20320;SDS011;10318;47.674;9.052;2022-11-12T05:24:04;25.88;;;17.25;;
20320;SDS011;10318;47.674;9.052;2022-11-12T05:26:50;27.30;;;17.50;;
20320;SDS011;10318;47.674;9.052;2022-11-12T05:29:36;25.67;;;16.95;;
20320;SDS011;10318;47.674;9.052;2022-11-12T05:32:21;28.90;;;17.45;;
20320;SDS011;10318;47.674;9.052;2022-11-12T05:35:07;25.23;;;16.45;;
20320;SDS011;10318;47.674;9.052;2022-11-12T05:37:52;26.40;;;17.00;;
20320;SDS011;10318;47.674;9.052;2022-11-12T05:40:37;25.88;;;15.85;;
20320;SDS011;10318;47.674;9.052;2022-11-12T05:43:22;23.80;;;15.98;;
20320;SDS011;10318;47.674;9.052;2022-11-12T05:46:08;31.35;;;18.33;;
20320;SDS011;10318;47.674;9.052;2022-11-12T05:48:53;26.75;;;16.60;;
20320;SDS011;10318;47.674;9.052;2022-11-12T05:51:38;26.45;;;16.30;;
20320;SDS011;10318;47.674;9.052;2022-11-12T05:54:27;25.10;;;16.55;;
20320;SDS011;10318;47.674;9.052;2022-11-12T05:57:12;28.52;;;17.92;;
20320;SDS011;10318;47.674;9.052;2022-11-12T05:59:57;27.08;;;17.45;;
20320;SDS011;10318;47.674;9.052;2022-11-12T06:02:42;28.42;;;18.30;;
20320;SDS011;10318;47.674;9.052;2022-11-12T06:05:28;29.98;;;17.80;;
20320;SDS011;10318;47.674;9.052;2022-11-12T06:08:13;29.38;;;18.30;;
20320;SDS011;10318;47.674;9.052;2022-11-12T06:10:59;34.38;;;20.35;;
20320;SDS011;10318;47.674;9.052;2022-11-12T06:13:44;29.50;;;19.10;;
20320;SDS011;10318;47.674;9.052;2022-11-12T06:16:29;34.85;;;18.55;;
20320;SDS011;10318;47.674;9.052;2022-11-12T06:19:14;28.92;;;18.00;;
20320;SDS011;10318;47.674;9.052;2022-11-12T06:22:00;33.42;;;19.13;;
20320;SDS011;10318;47.674;9.052;2022-11-12T06:24:45;30.55;;;18.48;;
20320;SDS011;10318;47.674;9.052;2022-11-12T06:27:30;22.45;;;15.48;;
20320;SDS011;10318;47.674;9.052;2022-11-12T06:30:16;27.50;;;16.60;;
20320;SDS011;10318;47.674;9.052;2022-11-12T06:33:08;25.08;;;16.00;;
20320;SDS011;10318;47.674;9.052;2022-11-12T06:36:00;21.90;;;14.68;;
20320;SDS011;10318;47.674;9.052;2022-11-12T06:38:47;23.08;;;15.85;;
20320;SDS011;10318;47.674;9.052;2022-11-12T06:41:32;21.10;;;14.13;;
20320;SDS011;10318;47.674;9.052;2022-11-12T06:44:17;22.10;;;14.48;;
20320;SDS011;10318;47.674;9.052;2022-11-12T06:47:06;23.10;;;15.23;;
20320;SDS011;10318;47.674;9.052;2022-11-12T06:49:51;24.33;;;14.80;;
20320;SDS011;10318;47.674;9.052;2022-11-12T06:52:37;24.50;;;15.73;;
20320;SDS011;10318;47.674;9.052;2022-11-12T06:55:22;25.00;;;16.15;;
20320;SDS011;10318;47.674;9.052;2022-11-12T06:58:07;23.05;;;15.15;;
20320;SDS011;10318;47.674;9.052;2022-11-12T07:00:53;24.05;;;15.25;;
20320;SDS011;10318;47.674;9.052;2022-11-12T07:03:39;25.05;;;16.33;;
20320;SDS011;10318;47.674;9.052;2022-11-12T07:06:25;23.17;;;15.48;;
20320;SDS011;10318;47.674;9.052;2022-11-12T07:09:11;26.88;;;15.32;;
20320;SDS011;10318;47.674;9.052;2022-11-12T07:11:56;23.77;;;15.45;;
20320;SDS011;10318;47.674;9.052;2022-11-12T07:14:41;25.48;;;15.30;;
20320;SDS011;10318;47.674;9.052;2022-11-12T07:17:27;26.30;;;16.25;;
20320;SDS011;10318;47.674;9.052;2022-11-12T07:20:12;26.70;;;15.10;;
20320;SDS011;10318;47.674;9.052;2022-11-12T07:22:58;25.38;;;14.18;;
20320;SDS011;10318;47.674;9.052;2022-11-12T07:25:44;21.90;;;14.95;;
20320;SDS011;10318;47.674;9.052;2022-11-12T07:28:29;21.27;;;13.60;;
20320;SDS011;10318;47.674;9.052;2022-11-12T07:31:15;19.15;;;12.98;;
20320;SDS011;10318;47.674;9.052;2022-11-12T07:34:00;17.67;;;12.40;;
20320;SDS011;10318;47.674;9.052;2022-11-12T07:36:45;23.17;;;13.70;;
20320;SDS011;10318;47.674;9.052;2022-11-12T07:39:32;20.67;;;14.60;;
20320;SDS011;10318;47.674;9.052;2022-11-12T07:42:17;22.65;;;14.80;;
20320;SDS011;10318;47.674;9.052;2022-11-12T07:45:03;22.38;;;14.93;;
20320;SDS011;10318;47.674;9.052;2022-11-12T07:47:48;22.27;;;15.20;;
20320;SDS011;10318;47.674;9.052;2022-11-12T07:50:34;19.63;;;13.60;;
20320;SDS011;10318;47.674;9.052;2022-11-12T07:53:20;22.45;;;14.45;;
20320;SDS011;10318;47.674;9.052;2022-11-12T07:56:05;21.60;;;14.13;;
20320;SDS011;10318;47.674;9.052;2022-11-12T07:58:50;22.02;;;14.57;;
20320;SDS011;10318;47.674;9.052;2022-11-12T08:01:36;23.98;;;15.38;;
20320;SDS011;10318;47.674;9.052;2022-11-12T08:04:22;21.67;;;14.25;;
20320;SDS011;10318;47.674;9.052;2022-11-12T08:07:08;24.02;;;15.85;;
20320;SDS011;10318;47.674;9.052;2022-11-12T08:09:53;21.88;;;14.30;;
20320;SDS011;10318;47.674;9.052;2022-11-12T08:12:39;20.48;;;14.02;;
20320;SDS011;10318;47.674;9.052;2022-11-12T08:15:24;18.77;;;13.00;;
20320;SDS011;10318;47.674;9.052;2022-11-12T08:18:10;18.15;;;12.80;;
20320;SDS011;10318;47.674;9.052;2022-11-12T08:20:58;18.80;;;12.23;;
20320;SDS011;10318;47.674;9.052;2022-11-12T08:23:44;21.25;;;13.95;;
20320;SDS011;10318;47.674;9.052;2022-11-12T08:26:31;19.50;;;13.63;;
20320;SDS011;10318;47.674;9.052;2022-11-12T08:29:16;20.65;;;13.77;;
20320;SDS011;10318;47.674;9.052;2022-11-12T08:32:02;19.60;;;13.82;;
20320;SDS011;10318;47.674;9.052;2022-11-12T08:34:47;22.67;;;15.23;;
20320;SDS011;10318;47.674;9.052;2022-11-12T08:37:33;21.23;;;14.20;;
20320;SDS011;10318;47.674;9.052;2022-11-12T08:40:18;22.92;;;14.50;;
20320;SDS011;10318;47.674;9.052;2022-11-12T08:43:04;21.58;;;14.00;;
20320;SDS011;10318;47.674;9.052;2022-11-12T08:45:49;25.02;;;16.30;;
20320;SDS011;10318;47.674;9.052;2022-11-12T08:48:35;23.20;;;15.68;;
20320;SDS011;10318;47.674;9.052;2022-11-12T08:51:20;25.83;;;16.55;;
20320;SDS011;10318;47.674;9.052;2022-11-12T08:54:06;26.10;;;16.30;;
20320;SDS011;10318;47.674;9.052;2022-11-12T08:56:51;28.30;;;16.25;;
20320;SDS011;10318;47.674;9.052;2022-11-12T08:59:36;26.08;;;16.65;;
20320;SDS011;10318;47.674;9.052;2022-11-12T09:02:21;28.23;;;17.27;;
20320;SDS011;10318;47.674;9.052;2022-11-12T09:05:07;24.58;;;15.73;;
20320;SDS011;10318;47.674;9.052;2022-11-12T09:07:59;25.67;;;16.15;;
20320;SDS011;10318;47.674;9.052;2022-11-12T09:10:44;25.15;;;16.17;;
20320;SDS011;10318;47.674;9.052;2022-11-12T09:13:30;26.88;;;17.00;;
20320;SDS011;10318;47.674;9.052;2022-11-12T09:16:15;29.13;;;16.58;;
20320;SDS011;10318;47.674;9.052;2022-11-12T09:19:02;27.02;;;15.85;;
20320;SDS011;10318;47.674;9.052;2022-11-12T09:21:48;26.52;;;15.43;;
20320;SDS011;10318;47.674;9.052;2022-11-12T09:24:33;24.30;;;14.75;;
20320;SDS011;10318;47.674;9.052;2022-11-12T09:27:18;23.70;;;14.82;;
20320;SDS011;10318;47.674;9.052;2022-11-12T09:30:04;25.70;;;15.20;;
20320;SDS011;10318;47.674;9.052;2022-11-12T09:32:55;25.85;;;16.00;;
20320;SDS011;10318;47.674;9.052;2022-11-12T09:35:41;24.15;;;15.50;;
20320;SDS011;10318;47.674;9.052;2022-11-12T09:38:27;26.05;;;16.63;;
20320;SDS011;10318;47.674;9.052;2022-11-12T09:41:15;26.77;;;15.82;;
20320;SDS011;10318;47.674;9.052;2022-11-12T09:44:02;26.38;;;16.63;;
20320;SDS011;10318;47.674;9.052;2022-11-12T09:49:37;25.75;;;15.68;;
20320;SDS011;10318;47.674;9.052;2022-11-12T09:52:25;26.27;;;16.38;;
20320;SDS011;10318;47.674;9.052;2022-11-12T09:55:16;28.40;;;17.20;;
20320;SDS011;10318;47.674;9.052;2022-11-12T09:58:07;26.52;;;16.23;;
20320;SDS011;10318;47.674;9.052;2022-11-12T10:00:54;26.60;;;16.60;;
20320;SDS011;10318;47.674;9.052;2022-11-12T10:06:54;28.23;;;17.10;;
20320;SDS011;10318;47.674;9.052;2022-11-12T10:15:33;26.42;;;15.35;;
20320;SDS011;10318;47.674;9.052;2022-11-12T10:21:48;27.90;;;17.23;;
20320;SDS011;10318;47.674;9.052;2022-11-12T10:24:36;29.10;;;17.20;;
20320;SDS011;10318;47.674;9.052;2022-11-12T10:27:23;31.52;;;18.90;;
20320;SDS011;10318;47.674;9.052;2022-11-12T10:30:18;26.90;;;17.13;;
20320;SDS011;10318;47.674;9.052;2022-11-12T10:33:03;32.33;;;16.92;;
20320;SDS011;10318;47.674;9.052;2022-11-12T10:35:49;26.23;;;17.00;;
20320;SDS011;10318;47.674;9.052;2022-11-12T10:38:35;25.33;;;15.70;;
20320;SDS011;10318;47.674;9.052;2022-11-12T10:41:23;29.10;;;17.85;;
20320;SDS011;10318;47.674;9.052;2022-11-12T10:44:13;27.88;;;17.20;;
20320;SDS011;10318;47.674;9.052;2022-11-12T10:55:54;29.88;;;17.17;;
20320;SDS011;10318;47.674;9.052;2022-11-12T10:58:40;30.35;;;17.00;;
20320;SDS011;10318;47.674;9.052;2022-11-12T11:01:25;28.63;;;17.15;;
20320;SDS011;10318;47.674;9.052;2022-11-12T11:04:15;25.20;;;16.05;;
20320;SDS011;10318;47.674;9.052;2022-11-12T11:10:01;27.40;;;16.58;;
20320;SDS011;10318;47.674;9.052;2022-11-12T11:12:47;25.92;;;16.30;;
20320;SDS011;10318;47.674;9.052;2022-11-12T11:15:32;27.85;;;16.40;;
20320;SDS011;10318;47.674;9.052;2022-11-12T11:18:17;26.58;;;16.80;;
20320;SDS011;10318;47.674;9.052;2022-11-12T11:24:19;24.95;;;15.35;;
20320;SDS011;10318;47.674;9.052;2022-11-12T11:30:18;25.35;;;15.40;;
20320;SDS011;10318;47.674;9.052;2022-11-12T11:33:47;28.45;;;17.58;;
20320;SDS011;10318;47.674;9.052;2022-11-12T11:39:00;26.48;;;15.95;;
20320;SDS011;10318;47.674;9.052;2022-11-12T11:41:50;24.95;;;15.45;;
20320;SDS011;10318;47.674;9.052;2022-11-12T11:44:54;30.63;;;16.92;;
20320;SDS011;10318;47.674;9.052;2022-11-12T11:56:30;26.63;;;16.42;;
20320;SDS011;10318;47.674;9.052;2022-11-12T11:59:20;23.42;;;15.07;;
20320;SDS011;10318;47.674;9.052;2022-11-12T12:08:06;25.10;;;16.23;;
20320;SDS011;10318;47.674;9.052;2022-11-12T12:11:09;24.67;;;15.32;;
20320;SDS011;10318;47.674;9.052;2022-11-12T12:25:31;23.95;;;15.20;;
20320;SDS011;10318;47.674;9.052;2022-11-12T12:28:38;26.40;;;15.43;;
20320;SDS011;10318;47.674;9.052;2022-11-12T12:31:28;25.67;;;16.17;;
20320;SDS011;10318;47.674;9.052;2022-11-12T12:34:22;24.92;;;15.43;;
20320;SDS011;10318;47.674;9.052;2022-11-12T12:37:14;22.92;;;15.68;;
20320;SDS011;10318;47.674;9.052;2022-11-12T12:40:16;24.10;;;15.18;;
20320;SDS011;10318;47.674;9.052;2022-11-12T12:43:06;25.58;;;16.05;;
20320;SDS011;10318;47.674;9.052;2022-11-12T12:45:55;23.70;;;15.10;;
20320;SDS011;10318;47.674;9.052;2022-11-12T12:48:41;26.05;;;16.00;;
20320;SDS011;10318;47.674;9.052;2022-11-12T12:51:28;27.58;;;15.85;;
20320;SDS011;10318;47.674;9.052;2022-11-12T12:57:39;22.85;;;14.52;;
20320;SDS011;10318;47.674;9.052;2022-11-12T13:11:58;24.88;;;15.52;;
20320;SDS011;10318;47.674;9.052;2022-11-12T13:14:50;23.05;;;15.20;;
20320;SDS011;10318;47.674;9.052;2022-11-12T13:17:43;26.58;;;15.52;;
20320;SDS011;10318;47.674;9.052;2022-11-12T13:20:36;24.50;;;15.05;;
20320;SDS011;10318;47.674;9.052;2022-11-12T13:26:50;23.25;;;15.38;;
20320;SDS011;10318;47.674;9.052;2022-11-12T13:35:29;24.98;;;15.60;;
20320;SDS011;10318;47.674;9.052;2022-11-12T13:38:16;22.13;;;14.52;;
20320;SDS011;10318;47.674;9.052;2022-11-12T13:43:46;26.80;;;15.90;;
20320;SDS011;10318;47.674;9.052;2022-11-12T13:46:32;21.95;;;15.07;;
20320;SDS011;10318;47.674;9.052;2022-11-12T13:49:18;24.95;;;15.80;;
20320;SDS011;10318;47.674;9.052;2022-11-12T13:52:04;25.02;;;15.13;;
20320;SDS011;10318;47.674;9.052;2022-11-12T13:55:05;26.40;;;15.52;;
20320;SDS011;10318;47.674;9.052;2022-11-12T13:57:52;24.70;;;14.93;;
20320;SDS011;10318;47.674;9.052;2022-11-12T14:00:37;25.38;;;15.32;;
20320;SDS011;10318;47.674;9.052;2022-11-12T14:03:23;23.85;;;15.48;;
20320;SDS011;10318;47.674;9.052;2022-11-12T14:06:16;24.30;;;15.65;;
20320;SDS011;10318;47.674;9.052;2022-11-12T14:20:38;24.58;;;15.52;;
20320;SDS011;10318;47.674;9.052;2022-11-12T14:23:24;22.52;;;14.07;;
20320;SDS011;10318;47.674;9.052;2022-11-12T14:26:10;25.30;;;15.75;;
20320;SDS011;10318;47.674;9.052;2022-11-12T14:28:56;24.77;;;15.32;;
20320;SDS011;10318;47.674;9.052;2022-11-12T14:31:41;23.35;;;14.63;;
20320;SDS011;10318;47.674;9.052;2022-11-12T14:34:27;23.10;;;14.98;;
20320;SDS011;10318;47.674;9.052;2022-11-12T14:37:34;23.60;;;14.98;;
20320;SDS011;10318;47.674;9.052;2022-11-12T14:40:26;22.42;;;14.13;;
20320;SDS011;10318;47.674;9.052;2022-11-12T14:49:05;23.00;;;14.95;;
20320;SDS011;10318;47.674;9.052;2022-11-12T14:51:52;22.13;;;13.80;;
20320;SDS011;10318;47.674;9.052;2022-11-12T14:54:39;22.40;;;14.10;;
20320;SDS011;10318;47.674;9.052;2022-11-12T14:57:26;22.58;;;14.35;;
20320;SDS011;10318;47.674;9.052;2022-11-12T15:00:15;23.25;;;14.80;;
20320;SDS011;10318;47.674;9.052;2022-11-12T15:03:01;23.38;;;14.43;;
20320;SDS011;10318;47.674;9.052;2022-11-12T15:05:55;25.63;;;15.30;;
20320;SDS011;10318;47.674;9.052;2022-11-12T15:08:41;22.98;;;13.80;;
20320;SDS011;10318;47.674;9.052;2022-11-12T15:11:34;21.67;;;13.57;;
20320;SDS011;10318;47.674;9.052;2022-11-12T15:14:21;21.48;;;12.90;;
20320;SDS011;10318;47.674;9.052;2022-11-12T15:20:23;25.02;;;14.43;;
20320;SDS011;10318;47.674;9.052;2022-11-12T15:23:17;23.10;;;13.73;;
20320;SDS011;10318;47.674;9.052;2022-11-12T15:26:03;22.50;;;14.45;;
20320;SDS011;10318;47.674;9.052;2022-11-12T15:29:01;20.48;;;13.82;;
20320;SDS011;10318;47.674;9.052;2022-11-12T15:31:51;23.73;;;14.05;;
20320;SDS011;10318;47.674;9.052;2022-11-12T15:37:26;22.48;;;13.75;;
20320;SDS011;10318;47.674;9.052;2022-11-12T15:40:15;21.15;;;13.35;;
20320;SDS011;10318;47.674;9.052;2022-11-12T15:43:03;23.50;;;13.88;;
20320;SDS011;10318;47.674;9.052;2022-11-12T15:45:52;23.42;;;14.30;;
20320;SDS011;10318;47.674;9.052;2022-11-12T15:48:38;19.80;;;12.90;;
20320;SDS011;10318;47.674;9.052;2022-11-12T15:51:23;19.85;;;12.43;;
20320;SDS011;10318;47.674;9.052;2022-11-12T15:54:09;23.95;;;13.80;;
20320;SDS011;10318;47.674;9.052;2022-11-12T15:56:54;20.52;;;12.75;;
20320;SDS011;10318;47.674;9.052;2022-11-12T15:59:39;22.65;;;13.25;;
20320;SDS011;10318;47.674;9.052;2022-11-12T16:02:25;20.30;;;12.18;;
20320;SDS011;10318;47.674;9.052;2022-11-12T16:05:13;14.82;;;10.13;;
20320;SDS011;10318;47.674;9.052;2022-11-12T16:07:59;13.38;;;9.52;;
20320;SDS011;10318;47.674;9.052;2022-11-12T16:10:44;14.27;;;9.55;;
20320;SDS011;10318;47.674;9.052;2022-11-12T16:13:30;13.27;;;9.07;;
20320;SDS011;10318;47.674;9.052;2022-11-12T16:16:17;12.65;;;9.30;;
20320;SDS011;10318;47.674;9.052;2022-11-12T16:19:02;15.25;;;9.70;;
20320;SDS011;10318;47.674;9.052;2022-11-12T16:21:48;13.43;;;9.30;;
20320;SDS011;10318;47.674;9.052;2022-11-12T16:24:33;13.20;;;9.40;;
20320;SDS011;10318;47.674;9.052;2022-11-12T16:27:18;14.98;;;10.27;;
20320;SDS011;10318;47.674;9.052;2022-11-12T16:30:18;14.65;;;9.82;;
20320;SDS011;10318;47.674;9.052;2022-11-12T16:33:04;14.27;;;9.77;;
20320;SDS011;10318;47.674;9.052;2022-11-12T16:35:49;15.98;;;9.85;;
20320;SDS011;10318;47.674;9.052;2022-11-12T16:38:35;15.20;;;9.70;;
20320;SDS011;10318;47.674;9.052;2022-11-12T16:41:20;15.80;;;9.93;;
20320;SDS011;10318;47.674;9.052;2022-11-12T16:44:05;14.05;;;9.73;;
20320;SDS011;10318;47.674;9.052;2022-11-12T16:46:50;14.60;;;9.50;;
20320;SDS011;10318;47.674;9.052;2022-11-12T16:49:39;15.43;;;10.05;;
20320;SDS011;10318;47.674;9.052;2022-11-12T16:52:26;14.50;;;10.52;;
20320;SDS011;10318;47.674;9.052;2022-11-12T16:55:12;14.80;;;9.60;;
20320;SDS011;10318;47.674;9.052;2022-11-12T16:57:57;16.10;;;10.73;;
20320;SDS011;10318;47.674;9.052;2022-11-12T17:00:43;16.20;;;11.57;;
20320;SDS011;10318;47.674;9.052;2022-11-12T17:03:29;14.82;;;10.35;;
20320;SDS011;10318;47.674;9.052;2022-11-12T17:06:15;15.35;;;10.68;;
20320;SDS011;10318;47.674;9.052;2022-11-12T17:09:00;15.55;;;10.15;;
20320;SDS011;10318;47.674;9.052;2022-11-12T17:11:45;17.67;;;10.95;;
20320;SDS011;10318;47.674;9.052;2022-11-12T17:14:30;14.93;;;9.43;;
20320;SDS011;10318;47.674;9.052;2022-11-12T17:17:16;14.52;;;10.43;;
20320;SDS011;10318;47.674;9.052;2022-11-12T17:20:01;17.25;;;11.35;;
20320;SDS011;10318;47.674;9.052;2022-11-12T17:22:46;17.75;;;10.77;;
20320;SDS011;10318;47.674;9.052;2022-11-12T17:25:32;15.20;;;11.13;;
20320;SDS011;10318;47.674;9.052;2022-11-12T17:28:17;16.92;;;11.80;;
20320;SDS011;10318;47.674;9.052;2022-11-12T17:31:15;16.75;;;11.23;;
20320;SDS011;10318;47.674;9.052;2022-11-12T17:34:02;16.45;;;11.48;;
20320;SDS011;10318;47.674;9.052;2022-11-12T17:36:48;17.45;;;12.23;;
20320;SDS011;10318;47.674;9.052;2022-11-12T17:39:33;18.55;;;11.60;;
20320;SDS011;10318;47.674;9.052;2022-11-12T17:42:19;17.67;;;11.82;;
20320;SDS011;10318;47.674;9.052;2022-11-12T17:45:04;17.77;;;12.32;;
20320;SDS011;10318;47.674;9.052;2022-11-12T17:47:49;18.92;;;13.13;;
20320;SDS011;10318;47.674;9.052;2022-11-12T17:50:35;17.25;;;12.02;;
20320;SDS011;10318;47.674;9.052;2022-11-12T17:53:23;16.70;;;11.57;;
20320;SDS011;10318;47.674;9.052;2022-11-12T17:56:09;16.58;;;10.63;;
20320;SDS011;10318;47.674;9.052;2022-11-12T17:58:55;17.45;;;11.05;;
20320;SDS011;10318;47.674;9.052;2022-11-12T18:01:40;15.63;;;10.85;;
20320;SDS011;10318;47.674;9.052;2022-11-12T18:04:26;15.77;;;10.82;;
20320;SDS011;10318;47.674;9.052;2022-11-12T18:07:14;17.85;;;11.88;;
20320;SDS011;10318;47.674;9.052;2022-11-12T18:10:00;16.70;;;11.75;;